Time;durP1;ratioP1;P1;durP2;ratioP2;P2;SDS_P1;SDS_P2;PMS_P1;PMS_P2;Temp;Humidity;BMP_temperature;BMP_pressure;BME280_temperature;BME280_humidity;BME280_pressure;Samples;Min_cycle;Max_cycle;Signal;HPM_P1;HPM_P2
2021/12/12 00:00:03;;;;;;;18.42;5.07;;;;;;;13.01;78.90;98358.31;5057270;28;20112;-79
2021/12/12 00:02:45;;;;;;;14.32;5.15;;;;;;;13.05;78.85;98383.31;5057416;28;20033;-79
2021/12/12 00:05:13;;;;;;;15.70;5.75;;;;;;;12.86;79.15;98360.53;5057532;28;20469;-78
2021/12/12 00:07:40;;;;;;;17.75;4.72;;;;;;;12.70;79.51;98327.50;5057140;28;20417;-79
2021/12/12 00:10:12;;;;;;;23.83;7.45;;;;;;;13.00;79.92;98365.44;5057334;28;20027;-79
2021/12/12 00:12:47;;;;;;;;;;;;;;;12.93;79.96;98395.69;5057870;28;20032;-79
2021/12/12 00:15:15;;;;;;;11.45;3.80;;;;;;;12.93;80.06;98411.59;5057300;28;19908;-78
2021/12/12 00:17:42;;;;;;;3.83;1.90;;;;;;;12.94;78.22;98414.03;5072014;28;20052;-78
2021/12/12 00:20:10;;;;;;;6.63;1.50;;;;;;;12.57;75.74;98339.00;5054203;28;20033;-78
2021/12/12 00:22:37;;;;;;;2.55;1.55;;;;;;;12.76;75.59;98379.56;5052939;28;20513;-78
2021/12/12 00:25:04;;;;;;;3.03;1.13;;;;;;;12.84;75.68;98397.81;5054253;28;20093;-78
2021/12/12 00:27:30;;;;;;;5.15;1.30;;;;;;;12.72;75.06;98381.84;5054076;28;20052;-79
2021/12/12 00:30:02;;;;;;;2.80;1.27;;;;;;;12.79;75.26;98397.69;5054192;28;20482;-78
2021/12/12 00:32:27;;;;;;;4.75;1.17;;;;;;;12.84;75.25;98389.06;5052771;28;20404;-78
2021/12/12 00:34:57;;;;;;;3.17;1.33;;;;;;;12.85;75.64;98388.84;5069637;28;20103;-78
2021/12/12 00:37:23;;;;;;;3.75;1.15;;;;;;;12.85;75.27;98403.94;5054111;28;20036;-78
2021/12/12 00:39:54;;;;;;;2.95;1.15;;;;;;;12.83;75.67;98406.81;5054067;28;20033;-78
2021/12/12 00:42:22;;;;;;;1.65;1.00;;;;;;;12.88;75.30;98414.91;5053954;28;20078;-78
2021/12/12 00:44:52;;;;;;;3.03;1.35;;;;;;;12.93;75.40;98432.78;5068878;28;20421;-78
2021/12/12 00:47:18;;;;;;;4.57;1.73;;;;;;;12.61;75.32;98366.66;5052425;28;20027;-78
2021/12/12 00:49:44;;;;;;;3.60;1.50;;;;;;;12.50;75.10;98359.44;5053757;28;20029;-78
2021/12/12 00:52:12;;;;;;;4.72;1.88;;;;;;;12.83;75.06;98413.94;5053811;28;20025;-78
2021/12/12 00:54:39;;;;;;;4.72;2.38;;;;;;;12.58;75.14;98371.59;5053754;28;20029;-78
2021/12/12 00:57:10;;;;;;;2.72;1.50;;;;;;;12.71;75.08;98397.97;5053611;28;20024;-78
2021/12/12 00:59:36;;;;;;;2.60;1.20;;;;;;;12.83;75.04;98406.81;5053623;28;20108;-77
2021/12/12 01:02:06;;;;;;;3.15;1.73;;;;;;;12.98;75.03;98419.69;5053474;28;20445;-77
2021/12/12 01:04:37;;;;;;;3.25;1.83;;;;;;;12.89;75.14;98421.00;5052006;28;20036;-77
2021/12/12 01:07:06;;;;;;;4.40;1.98;;;;;;;12.79;75.54;98418.06;5053229;28;20083;-77
2021/12/12 01:09:36;;;;;;;3.25;1.90;;;;;;;12.99;75.42;98458.41;5053642;28;20108;-78
2021/12/12 01:12:07;;;;;;;2.40;1.15;;;;;;;12.88;75.69;98461.78;5053371;28;20024;-78
2021/12/12 01:14:37;;;;;;;3.58;1.20;;;;;;;12.46;75.34;98407.75;5053368;28;20029;-78
2021/12/12 01:17:21;;;;;;;2.30;1.33;;;;;;;12.94;75.22;98498.81;5053149;28;20078;-79
2021/12/12 01:19:54;;;;;;;2.95;1.35;;;;;;;12.61;74.98;98475.25;5053192;28;20029;-78
2021/12/12 01:22:27;;;;;;;4.22;2.45;;;;;;;12.37;75.50;98452.22;5053059;28;20099;-78
2021/12/12 01:24:55;;;;;;;5.38;2.85;;;;;;;12.81;75.32;98506.88;5053108;28;20494;-79
2021/12/12 01:27:21;;;;;;;8.43;3.83;;;;;;;12.65;75.76;98488.88;5052877;28;20029;-78
2021/12/12 01:29:49;;;;;;;5.10;2.92;;;;;;;12.45;75.77;98438.72;5052151;28;20021;-79
2021/12/12 01:32:24;;;;;;;6.10;2.78;;;;;;;12.87;76.20;98535.13;5052631;28;20024;-79
2021/12/12 01:34:51;;;;;;;6.70;2.92;;;;;;;12.83;76.65;98546.38;5052805;28;20032;-79
2021/12/12 01:37:50;;;;;;;5.75;2.40;;;;;;;12.40;76.38;98478.25;5051477;28;20028;-79
2021/12/12 01:40:23;;;;;;;1.97;1.17;;;;;;;12.62;76.13;98515.75;5052218;28;20102;-79
2021/12/12 01:43:20;;;;;;;1.83;0.90;;;;;;;12.69;76.21;98482.94;5051357;28;20036;-78
2021/12/12 01:45:49;;;;;;;3.90;1.40;;;;;;;12.73;76.22;98464.78;5051953;28;20047;-78
2021/12/12 01:48:26;;;;;;;2.65;1.90;;;;;;;12.21;75.75;98368.09;5052327;28;20040;-78
2021/12/12 01:50:56;;;;;;;2.42;1.65;;;;;;;12.71;75.54;98443.81;5052450;28;20037;-78
2021/12/12 01:53:26;;;;;;;2.53;1.60;;;;;;;12.69;76.02;98443.22;5052418;28;20079;-79
2021/12/12 01:56:03;;;;;;;4.07;2.00;;;;;;;12.13;75.71;98358.59;5052631;28;20475;-78
2021/12/12 01:58:31;;;;;;;2.35;1.58;;;;;;;12.09;76.21;98376.72;5052120;28;20060;-78
2021/12/12 02:00:59;;;;;;;2.78;1.90;;;;;;;12.47;76.05;98378.41;5052621;28;20100;-78
2021/12/12 02:03:29;;;;;;;3.50;1.60;;;;;;;12.39;76.46;98400.69;5052475;28;20098;-78
2021/12/12 02:05:56;;;;;;;7.30;2.70;;;;;;;12.36;76.57;98419.66;5051098;28;20390;-78
2021/12/12 02:08:23;;;;;;;3.15;1.77;;;;;;;12.37;76.45;98412.53;5051124;28;20025;-77
2021/12/12 02:10:54;;;;;;;2.45;1.20;;;;;;;12.49;76.37;98420.56;5052226;28;20032;-78
2021/12/12 02:13:22;;;;;;;2.17;1.77;;;;;;;12.18;75.90;98364.03;5050991;28;20468;-77
2021/12/12 02:15:50;;;;;;;2.88;1.50;;;;;;;12.52;75.85;98410.34;5050709;28;20040;-78
2021/12/12 02:18:21;;;;;;;4.10;1.83;;;;;;;12.54;75.33;98423.38;5052046;28;20064;-78
2021/12/12 02:21:20;;;;;;;5.20;2.17;;;;;;;12.54;74.98;98418.88;5052114;28;20108;-78
2021/12/12 02:37:26;;;;;;;3.42;1.15;;;;;;;12.47;73.66;98428.72;5052252;28;20047;-78
2021/12/12 02:39:52;;;;;;;2.13;0.90;;;;;;;12.22;72.86;98386.38;5051610;28;20017;-78
2021/12/12 02:42:21;;;;;;;2.22;0.90;;;;;;;11.99;72.37;98352.59;5050638;28;20056;-77
2021/12/12 02:44:49;;;;;;;4.30;1.33;;;;;;;12.49;72.29;98434.59;5051614;28;20082;-77
2021/12/12 02:47:19;;;;;;;2.15;0.80;;;;;;;12.59;72.49;98455.28;5050601;28;20039;-78
2021/12/12 02:52:21;;;;;;;2.45;0.80;;;;;;;12.58;71.71;98454.50;5051490;28;20116;-78
2021/12/12 02:54:46;;;;;;;1.20;0.90;;;;;;;12.35;71.37;98420.69;5067014;28;20040;-78
2021/12/12 02:57:13;;;;;;;2.35;1.10;;;;;;;12.12;71.59;98380.78;5051379;28;20414;-78
2021/12/12 02:59:42;;;;;;;2.05;1.17;;;;;;;12.14;71.77;98381.38;5051325;28;20412;-77
2021/12/12 03:02:12;;;;;;;4.15;0.98;;;;;;;11.95;71.22;98343.47;5051231;28;20417;-78
2021/12/12 03:04:39;;;;;;;3.45;1.42;;;;;;;12.22;71.32;98399.63;5051444;28;20473;-77
2021/12/12 03:07:08;;;;;;;1.42;1.20;;;;;;;12.54;71.10;98448.00;5051421;28;20021;-78
2021/12/12 03:09:40;;;;;;;2.70;1.00;;;;;;;11.98;70.58;98369.50;5066730;28;20036;-77
2021/12/12 03:12:10;;;;;;;3.30;1.98;;;;;;;12.46;70.89;98469.47;5051353;28;20025;-77
2021/12/12 03:14:37;;;;;;;4.47;2.17;;;;;;;12.48;71.03;98469.25;5051376;28;20490;-78
2021/12/12 03:17:08;;;;;;;4.88;2.22;;;;;;;11.95;70.37;98393.72;5051285;28;20104;-77
2021/12/12 03:19:35;;;;;;;4.10;1.70;;;;;;;12.23;70.48;98437.47;5051409;28;20116;-77
2021/12/12 03:22:01;;;;;;;2.20;1.70;;;;;;;12.30;70.35;98443.53;5050242;28;20117;-78
2021/12/12 03:24:27;;;;;;;4.97;1.77;;;;;;;12.51;70.63;98468.81;5051382;28;20108;-77
2021/12/12 03:26:59;;;;;;;3.30;1.35;;;;;;;12.56;70.35;98488.31;5051000;28;20051;-77
2021/12/12 03:29:25;;;;;;;2.10;1.50;;;;;;;12.52;70.53;98500.38;5051092;28;20100;-77
2021/12/12 03:31:57;;;;;;;3.05;1.58;;;;;;;12.18;70.84;98439.97;5050914;28;20060;-77
2021/12/12 03:34:28;;;;;;;2.95;1.83;;;;;;;12.07;70.73;98429.03;5050869;28;20025;-77
2021/12/12 03:36:54;;;;;;;4.50;1.80;;;;;;;12.40;70.83;98491.50;5050902;28;20059;-77
2021/12/12 03:39:30;;;;;;;5.03;1.48;;;;;;;12.34;71.17;98510.88;5050867;28;20064;-76
2021/12/12 03:42:01;;;;;;;4.60;2.25;;;;;;;12.26;71.12;98519.09;5050954;28;20036;-78
2021/12/12 03:44:29;;;;;;;6.72;3.83;;;;;;;11.83;71.22;98484.53;5050731;28;20033;-77
2021/12/12 03:47:00;;;;;;;2.97;2.15;;;;;;;11.85;70.32;98501.81;5049534;28;20032;-77
2021/12/12 03:49:26;;;;;;;3.22;1.90;;;;;;;12.11;69.96;98545.03;5050950;28;20501;-78
2021/12/12 03:51:52;;;;;;;2.50;1.88;;;;;;;12.02;70.24;98552.41;5050711;28;20029;-78
2021/12/12 03:54:17;;;;;;;3.45;2.05;;;;;;;11.96;70.64;98548.78;5054327;28;20029;-77
2021/12/12 03:56:44;;;;;;;4.90;2.00;;;;;;;11.87;69.73;98528.84;5053541;28;20027;-77
2021/12/12 03:59:12;;;;;;;4.85;2.85;;;;;;;11.69;69.05;98515.47;5054510;28;20021;-78
2021/12/12 04:01:43;;;;;;;4.55;2.60;;;;;;;11.56;69.46;98512.88;5054488;28;20028;-77
2021/12/12 04:04:27;;;;;;;4.20;2.35;;;;;;;11.91;68.81;98564.47;5054516;28;20028;-77
2021/12/12 04:06:54;;;;;;;4.75;2.58;;;;;;;11.88;69.16;98554.28;5054618;28;20040;-77
2021/12/12 04:09:20;;;;;;;4.18;2.55;;;;;;;11.67;69.23;98513.03;5054316;28;20413;-77
2021/12/12 04:11:49;;;;;;;3.47;2.08;;;;;;;11.96;69.40;98567.28;5054427;28;20024;-77
2021/12/12 04:14:16;;;;;;;6.13;2.40;;;;;;;11.81;69.11;98537.63;5054215;28;20025;-78
2021/12/12 04:16:47;;;;;;;3.65;1.90;;;;;;;11.57;68.72;98501.28;5054180;28;20021;-77
2021/12/12 04:19:13;;;;;;;5.63;1.80;;;;;;;11.59;68.12;98508.00;5054429;28;20111;-78
2021/12/12 04:21:39;;;;;;;3.88;2.00;;;;;;;11.85;67.57;98553.88;5054429;28;20057;-78
2021/12/12 04:24:06;;;;;;;4.00;1.77;;;;;;;11.97;67.63;98576.84;5054405;28;20029;-78
2021/12/12 04:26:35;;;;;;;3.75;1.70;;;;;;;12.04;66.68;98590.84;5054142;28;20055;-77
2021/12/12 04:29:00;;;;;;;3.63;2.35;;;;;;;12.06;66.93;98604.69;5054274;28;20056;-78
2021/12/12 04:31:26;;;;;;;5.55;2.35;;;;;;;12.07;67.32;98616.09;5054037;28;20110;-79
2021/12/12 04:33:53;;;;;;;5.80;2.40;;;;;;;11.52;66.96;98532.84;5069399;28;20029;-77
2021/12/12 04:36:25;;;;;;;5.05;2.42;;;;;;;12.05;66.53;98618.13;5053737;28;20102;-76
2021/12/12 04:38:50;;;;;;;4.72;2.40;;;;;;;11.94;66.69;98597.63;5052635;28;20048;-77
2021/12/12 04:41:22;;;;;;;3.13;2.17;;;;;;;12.00;67.30;98613.47;5054048;28;20142;-77
2021/12/12 04:43:48;;;;;;;;;;;;;;;11.91;66.60;98625.31;5054373;28;20029;-78
2021/12/12 04:46:22;;;;;;;4.65;2.15;;;;;;;11.65;67.08;98583.81;5052783;28;19909;-77
2021/12/12 04:51:56;;;;;;;5.20;2.60;;;;;;;11.98;66.13;98647.25;5049996;28;20413;-78
2021/12/12 04:54:30;;;;;;;5.18;2.58;;;;;;;11.66;66.82;98593.38;5053574;28;20107;-77
2021/12/12 04:57:02;;;;;;;4.70;2.15;;;;;;;11.75;66.35;98633.63;5053389;28;20025;-78
2021/12/12 04:59:41;;;;;;;4.55;2.42;;;;;;;11.99;66.58;98662.09;5053473;28;20076;-77
2021/12/12 05:02:07;;;;;;;5.10;2.55;;;;;;;12.00;66.19;98660.28;5053587;28;20025;-78
2021/12/12 05:04:49;;;;;;;5.47;2.50;;;;;;;11.94;65.96;98666.41;5052274;28;20028;-77
2021/12/12 05:08:03;;;;;;;6.75;2.67;;;;;;;11.82;66.18;98650.31;5053606;28;20543;-78
2021/12/12 05:10:55;;;;;;;7.78;2.60;;;;;;;11.59;67.00;98623.50;5048197;28;20049;-77
2021/12/12 05:13:30;;;;;;;4.00;2.22;;;;;;;11.94;66.74;98653.16;5053259;28;20079;-78
2021/12/12 05:16:06;;;;;;;4.03;2.28;;;;;;;11.35;67.01;98557.06;5068775;28;20029;-77
2021/12/12 05:18:37;;;;;;;5.03;2.50;;;;;;;11.86;66.83;98662.13;5051701;28;20490;-77
2021/12/12 05:21:13;;;;;;;5.65;2.40;;;;;;;11.73;67.05;98672.69;5052983;28;20059;-76
2021/12/12 05:23:45;;;;;;;4.55;2.78;;;;;;;11.67;67.18;98686.75;5053080;28;20025;-77
2021/12/12 05:26:13;;;;;;;6.10;2.67;;;;;;;11.72;67.34;98710.72;5053117;28;20029;-77
2021/12/12 05:28:50;;;;;;;9.95;4.75;;;;;;;11.21;66.73;98642.66;5051744;28;20102;-77
2021/12/12 05:31:18;;;;;;;9.40;4.85;;;;;;;11.28;66.44;98648.75;5052997;28;20085;-76
2021/12/12 05:33:45;;;;;;;8.65;5.00;;;;;;;11.67;66.87;98721.13;5068295;28;20079;-77
2021/12/12 05:36:13;;;;;;;8.77;4.35;;;;;;;11.58;67.45;98691.44;5052539;28;20464;-76
2021/12/12 05:38:39;;;;;;;7.45;4.47;;;;;;;11.65;67.30;98713.38;5052707;28;20039;-77
2021/12/12 05:41:06;;;;;;;10.90;4.18;;;;;;;11.61;67.70;98709.53;5052738;28;20025;-78
2021/12/12 05:43:34;;;;;;;8.10;4.05;;;;;;;11.50;67.66;98696.94;5052697;28;20498;-77
2021/12/12 05:46:01;;;;;;;6.72;4.80;;;;;;;11.56;67.74;98706.69;5052562;28;20032;-78
2021/12/12 05:48:27;;;;;;;8.82;4.30;;;;;;;11.54;67.93;98702.63;5052739;28;20035;-77
2021/12/12 05:50:53;;;;;;;9.60;4.60;;;;;;;11.12;68.86;98634.09;5052729;28;20033;-77
2021/12/12 05:53:19;;;;;;;8.05;4.43;;;;;;;11.40;68.01;98678.84;5052566;28;20112;-77
2021/12/12 05:55:47;;;;;;;6.10;3.72;;;;;;;11.37;67.89;98670.50;5052439;28;20036;-78
2021/12/12 05:58:17;;;;;;;6.03;2.60;;;;;;;11.47;67.88;98684.13;5052394;28;20067;-77
2021/12/12 06:00:48;;;;;;;7.80;3.30;;;;;;;11.64;68.10;98695.09;5052477;28;20140;-77
2021/12/12 06:03:16;;;;;;;6.90;3.20;;;;;;;11.72;67.31;98698.31;5038272;28;20543;-77
2021/12/12 06:05:42;;;;;;;7.30;3.25;;;;;;;11.43;66.54;98649.34;5032804;28;20036;-78
2021/12/12 06:08:09;;;;;;;6.07;3.67;;;;;;;11.49;65.68;98642.44;5032257;28;20021;-77
2021/12/12 06:10:36;;;;;;;5.25;3.25;;;;;;;11.55;65.81;98641.63;5038652;28;20057;-77
2021/12/12 06:13:04;;;;;;;4.75;3.38;;;;;;;12.06;64.55;98688.53;5031920;28;20057;-78
2021/12/12 06:15:31;;;;;;;5.18;2.50;;;;;;;11.65;64.22;98646.47;5031485;28;20045;-77
2021/12/12 06:17:58;;;;;;;4.10;2.60;;;;;;;11.96;63.70;98702.19;5031383;28;20018;-77
2021/12/12 06:20:26;;;;;;;5.10;2.92;;;;;;;12.11;64.03;98694.03;5031365;28;20079;-77
2021/12/12 06:22:53;;;;;;;4.57;2.25;;;;;;;11.77;63.04;98660.69;5034212;28;20429;-78
2021/12/12 06:25:19;;;;;;;4.53;2.15;;;;;;;11.97;62.95;98703.03;5046421;28;20032;-78
2021/12/12 06:27:44;;;;;;;5.28;2.10;;;;;;;12.07;61.67;98706.84;5039849;28;20032;-76
2021/12/12 06:30:15;;;;;;;7.82;2.80;;;;;;;11.93;61.56;98676.16;5031919;28;20494;-76
2021/12/12 06:32:42;;;;;;;3.08;1.60;;;;;;;12.01;61.72;98686.53;5048785;28;20031;-78
2021/12/12 06:35:09;;;;;;;4.72;2.20;;;;;;;11.96;61.65;98670.47;5051843;28;20032;-76
2021/12/12 06:37:35;;;;;;;7.55;2.15;;;;;;;12.44;61.63;98746.84;5051662;28;20037;-78
2021/12/12 06:40:04;;;;;;;5.72;2.20;;;;;;;12.48;61.61;98757.81;5051652;28;20525;-77
2021/12/12 06:42:30;;;;;;;5.40;2.05;;;;;;;12.07;61.43;98690.97;5044013;28;20087;-77
2021/12/12 06:44:56;;;;;;;7.25;2.50;;;;;;;12.37;61.05;98741.56;5030366;28;20566;-78
2021/12/12 06:47:21;;;;;;;4.20;2.47;;;;;;;12.28;62.09;98718.19;5037732;28;20104;-77
2021/12/12 06:49:47;;;;;;;4.60;1.90;;;;;;;12.23;61.49;98721.47;5047811;28;20473;-77
2021/12/12 06:52:15;;;;;;;3.17;1.30;;;;;;;12.30;61.64;98718.78;5030298;28;20025;-78
2021/12/12 06:54:40;;;;;;;2.75;1.48;;;;;;;12.29;61.75;98739.16;5039861;28;21774;-76
2021/12/12 06:57:09;;;;;;;4.13;1.40;;;;;;;12.62;61.33;98780.59;5039049;28;20037;-78
2021/12/12 06:59:37;;;;;;;5.82;1.30;;;;;;;12.59;61.13;98781.81;5045549;28;20031;-76
2021/12/12 07:02:06;;;;;;;2.78;1.20;;;;;;;12.64;61.15;98799.75;5038272;28;20029;-77
2021/12/12 07:04:33;;;;;;;5.72;1.10;;;;;;;12.53;61.51;98782.66;5037287;28;20056;-77
2021/12/12 07:07:01;;;;;;;4.70;1.70;;;;;;;12.65;61.94;98799.53;5043370;28;20035;-78
2021/12/12 07:09:30;;;;;;;3.17;1.38;;;;;;;12.69;61.70;98799.94;5041734;28;20025;-77
2021/12/12 07:11:58;;;;;;;3.75;1.55;;;;;;;12.53;61.67;98771.25;5042327;28;20064;-77
2021/12/12 07:14:25;;;;;;;3.05;1.20;;;;;;;12.30;61.23;98732.84;5050343;28;20059;-77
2021/12/12 07:16:50;;;;;;;6.82;1.17;;;;;;;12.20;61.53;98706.00;5051303;28;20033;-77
2021/12/12 07:19:17;;;;;;;3.50;1.30;;;;;;;12.43;61.82;98731.16;5047051;28;20223;-77
2021/12/12 07:21:45;;;;;;;3.60;1.08;;;;;;;12.35;61.54;98719.78;5040087;28;20124;-78
2021/12/12 07:24:10;;;;;;;3.78;1.73;;;;;;;12.77;61.45;98786.47;5037435;28;20021;-77
2021/12/12 07:26:38;;;;;;;2.53;1.60;;;;;;;12.74;61.52;98800.13;5049616;28;20036;-77
2021/12/12 07:29:04;;;;;;;3.50;1.70;;;;;;;12.72;61.39;98810.94;5039162;28;20183;-77
2021/12/12 07:31:33;;;;;;;5.75;1.83;;;;;;;12.64;61.58;98799.75;5043909;28;20107;-77
2021/12/12 07:34:03;;;;;;;5.53;3.15;;;;;;;12.55;61.49;98779.78;5047920;28;20425;-77
2021/12/12 07:36:33;;;;;;;7.55;4.28;;;;;;;12.68;61.53;98820.31;5054569;28;20485;-78
2021/12/12 07:39:03;;;;;;;7.65;4.97;;;;;;;12.22;61.47;98764.81;5054983;28;20409;-77
2021/12/12 07:41:30;;;;;;;11.60;6.20;;;;;;;12.71;61.66;98842.91;5054805;28;20483;-77
2021/12/12 07:43:59;;;;;;;8.77;5.82;;;;;;;12.26;61.74;98763.38;5053643;28;20025;-76
2021/12/12 07:46:26;;;;;;;9.13;5.68;;;;;;;12.57;62.21;98806.88;5053728;28;20465;-78
2021/12/12 07:48:53;;;;;;;9.18;5.93;;;;;;;12.39;62.17;98786.38;5055050;28;20416;-78
2021/12/12 07:51:20;;;;;;;11.18;5.63;;;;;;;12.59;62.32;98807.47;5054606;28;20390;-78
2021/12/12 07:53:52;;;;;;;11.25;6.88;;;;;;;12.73;62.06;98835.59;5054580;28;20075;-78
2021/12/12 07:56:19;;;;;;;10.07;7.15;;;;;;;12.42;61.97;98804.47;5054965;28;20086;-77
2021/12/12 07:58:45;;;;;;;10.65;6.97;;;;;;;12.48;61.96;98816.88;5054884;28;20036;-77
2021/12/12 08:01:13;;;;;;;7.38;5.30;;;;;;;12.73;61.73;98859.41;5054853;28;20025;-78
2021/12/12 08:03:39;;;;;;;8.35;5.93;;;;;;;12.37;62.38;98804.28;5054713;28;20581;-77
2021/12/12 08:06:07;;;;;;;7.95;6.00;;;;;;;12.77;61.79;98863.28;5054732;28;20025;-77
2021/12/12 08:08:33;;;;;;;10.23;6.57;;;;;;;12.29;62.42;98786.78;5054541;28;20021;-78
2021/12/12 08:10:59;;;;;;;9.88;5.32;;;;;;;12.48;62.14;98826.66;5054549;28;20098;-76
2021/12/12 08:13:25;;;;;;;8.68;5.32;;;;;;;12.74;62.05;98869.00;5053214;28;20025;-77
2021/12/12 08:15:51;;;;;;;9.20;5.25;;;;;;;12.74;61.75;98876.94;5054353;28;20020;-78
2021/12/12 08:18:18;;;;;;;7.65;4.53;;;;;;;12.73;60.99;98891.19;5054154;28;20028;-78
2021/12/12 08:20:46;;;;;;;7.90;5.43;;;;;;;12.73;60.83;98885.91;5054470;28;20032;-78
2021/12/12 08:23:14;;;;;;;9.45;4.97;;;;;;;12.25;60.99;98819.19;5054277;28;20021;-78
2021/12/12 08:25:42;;;;;;;12.02;7.10;;;;;;;12.36;60.96;98837.06;5054090;28;20107;-78
2021/12/12 08:28:09;;;;;;;9.23;6.47;;;;;;;12.58;61.39;98867.56;5052801;28;20051;-78
2021/12/12 08:30:36;;;;;;;10.93;6.30;;;;;;;12.80;61.55;98896.47;5053977;28;20028;-77
2021/12/12 08:33:01;;;;;;;6.78;4.25;;;;;;;12.48;61.26;98847.84;5053899;28;20029;-78
2021/12/12 08:35:28;;;;;;;9.73;3.60;;;;;;;12.81;61.49;98895.47;5053780;28;20084;-78
2021/12/12 08:37:56;;;;;;;5.95;4.03;;;;;;;12.63;61.46;98889.00;5053787;28;20417;-78
2021/12/12 08:40:26;;;;;;;4.45;3.13;;;;;;;12.70;61.63;98903.03;5052288;28;20033;-77
2021/12/12 08:42:53;;;;;;;7.72;3.33;;;;;;;12.29;61.82;98813.25;5053881;28;20059;-77
2021/12/12 08:45:23;;;;;;;5.07;2.92;;;;;;;12.80;62.08;98888.53;5053859;28;20090;-78
2021/12/12 08:47:51;;;;;;;5.80;2.95;;;;;;;12.44;61.93;98831.56;5052493;28;20025;-77
2021/12/12 08:50:23;;;;;;;5.32;2.65;;;;;;;12.28;62.26;98816.13;5053940;28;20085;-76
2021/12/12 08:52:50;;;;;;;6.97;2.70;;;;;;;12.32;62.65;98823.44;5053658;28;20036;-78
2021/12/12 08:55:23;;;;;;;5.00;2.63;;;;;;;12.50;62.81;98854.56;5052183;28;20024;-78
2021/12/12 08:57:59;;;;;;;7.75;3.50;;;;;;;12.72;62.72;98887.75;5053201;28;20436;-78
2021/12/12 09:00:30;;;;;;;6.65;2.72;;;;;;;12.92;63.26;98908.06;5051963;28;20033;-78
2021/12/12 09:02:56;;;;;;;5.18;2.67;;;;;;;12.58;63.33;98841.09;5053277;28;20029;-78
2021/12/12 09:05:33;;;;;;;8.05;4.00;;;;;;;13.02;62.90;98895.19;5052092;28;20021;-76
2021/12/12 09:08:06;;;;;;;8.82;4.57;;;;;;;13.00;62.89;98870.72;5053585;28;20031;-77
2021/12/12 09:10:41;;;;;;;8.52;4.78;;;;;;;13.19;62.44;98883.13;5053330;28;20109;-77
2021/12/12 09:13:16;;;;;;;16.20;10.52;;;;;;;12.84;61.52;98804.97;5052027;28;20056;-77
2021/12/12 09:15:53;;;;;;;11.75;8.93;;;;;;;13.44;60.59;98893.84;5053389;28;20151;-76
2021/12/12 09:18:29;;;;;;;8.52;5.75;;;;;;;13.55;59.82;98893.16;5052989;28;20033;-78
2021/12/12 09:21:14;;;;;;;10.00;4.57;;;;;;;13.60;59.56;98901.28;5053078;28;20032;-77
2021/12/12 09:24:05;;;;;;;8.13;5.18;;;;;;;13.50;58.57;98871.78;5045065;28;20033;-78
2021/12/12 09:26:37;;;;;;;7.03;4.27;;;;;;;13.33;58.66;98878.56;5052780;28;20456;-77
2021/12/12 09:29:14;;;;;;;7.88;3.28;;;;;;;13.65;58.49;98906.78;5052831;28;20040;-77
2021/12/12 09:31:50;;;;;;;8.30;4.97;;;;;;;13.62;57.96;98887.81;5051237;28;20083;-77
2021/12/12 09:34:33;;;;;;;9.70;6.15;;;;;;;13.47;58.13;98869.53;5051417;28;20040;-77
2021/12/12 09:37:05;;;;;;;5.75;3.75;;;;;;;13.33;58.11;98849.41;5052724;28;20460;-76
2021/12/12 09:39:44;;;;;;;8.60;4.93;;;;;;;13.76;58.03;98915.88;5052618;28;20020;-78
2021/12/12 09:42:48;;;;;;;7.68;4.00;;;;;;;13.81;58.06;98904.63;5052809;28;20040;-77
2021/12/12 09:45:31;;;;;;;7.20;3.80;;;;;;;13.15;58.06;98789.13;5051158;28;20514;-77
2021/12/12 09:51:14;;;;;;;5.20;2.85;;;;;;;13.85;57.77;98893.38;5039955;28;20083;-78
2021/12/12 09:51:16;;;;;;;6.95;3.17;;;;;;;13.88;58.01;98895.59;5034011;28;20044;-77
2021/12/12 09:53:57;;;;;;;9.90;2.97;;;;;;;14.02;57.67;98882.22;5029618;28;20041;-77
2021/12/12 09:56:40;;;;;;;4.88;2.85;;;;;;;14.07;57.26;98890.34;5045012;28;20116;-77
2021/12/12 09:59:26;;;;;;;5.38;3.13;;;;;;;14.13;57.15;98865.63;5052076;28;20090;-78
2021/12/12 10:02:06;;;;;;;7.20;3.38;;;;;;;14.26;57.34;98876.13;5051989;28;20112;-76
2021/12/12 10:05:01;;;;;;;7.53;4.20;;;;;;;14.30;57.11;98870.16;5050731;28;20112;-78
2021/12/12 10:08:03;;;;;;;5.82;3.10;;;;;;;14.35;56.96;98858.88;5032111;28;20514;-76
2021/12/12 10:10:36;;;;;;;9.07;4.03;;;;;;;14.42;57.14;98872.09;5032135;28;20498;-77
2021/12/12 10:13:20;;;;;;;7.28;4.05;;;;;;;14.32;56.77;98848.69;5047757;28;20032;-76
2021/12/12 10:15:51;;;;;;;8.25;3.78;;;;;;;14.56;56.51;98860.34;5031878;28;20045;-77
2021/12/12 10:18:29;;;;;;;3.65;1.75;;;;;;;14.67;56.11;98858.78;5031526;28;20028;-77
2021/12/12 10:21:08;;;;;;;4.47;1.55;;;;;;;14.66;55.46;98843.88;5030860;28;20029;-77
2021/12/12 10:23:54;;;;;;;5.13;1.52;;;;;;;14.62;55.26;98844.34;5032086;28;20383;-77
2021/12/12 10:26:37;;;;;;;3.75;1.27;;;;;;;14.50;54.66;98819.53;5031616;28;20036;-77
2021/12/12 10:29:09;;;;;;;4.80;1.95;;;;;;;14.90;55.28;98859.78;5031818;28;20494;-77
2021/12/12 10:32:10;;;;;;;5.60;2.92;;;;;;;14.56;55.35;98789.44;5032165;28;20112;-77
2021/12/12 10:34:49;;;;;;;3.35;1.10;;;;;;;14.67;54.65;98798.50;5023463;28;20443;-76
2021/12/12 10:37:22;;;;;;;4.30;1.33;;;;;;;14.82;53.62;98817.53;5062006;28;20025;-78
2021/12/12 10:40:02;;;;;;;2.65;1.23;;;;;;;15.12;53.39;98862.78;5031761;28;20129;-78
2021/12/12 10:42:32;;;;;;;3.95;1.25;;;;;;;15.24;52.95;98870.81;5031862;28;20060;-78
2021/12/12 10:45:16;;;;;;;5.05;2.63;;;;;;;15.25;52.63;98867.13;5031132;28;20033;-78
2021/12/12 10:48:00;;;;;;;9.10;6.57;;;;;;;15.27;52.99;98876.50;5049739;28;20482;-78
2021/12/12 10:50:37;;;;;;;36.00;28.65;;;;;;;15.31;52.71;98882.19;5051288;28;20025;-77
2021/12/12 10:53:48;;;;;;;11.57;8.85;;;;;;;15.24;52.92;98884.94;5051275;28;20474;-78
2021/12/12 10:56:22;;;;;;;18.75;15.18;;;;;;;15.08;52.23;98850.97;5036947;28;20045;-76
2021/12/12 10:59:03;;;;;;;18.88;14.20;;;;;;;15.25;52.47;98875.91;5031125;28;20033;-77
2021/12/12 11:01:39;;;;;;;26.25;20.17;;;;;;;15.02;52.55;98819.97;5030681;28;20500;-76
2021/12/12 11:04:22;;;;;;;11.93;7.30;;;;;;;15.33;52.08;98879.31;5030995;28;20037;-76
2021/12/12 11:06:50;;;;;;;7.80;5.03;;;;;;;15.34;52.13;98883.59;5046536;28;20510;-77
2021/12/12 11:09:20;;;;;;;5.85;3.40;;;;;;;15.36;52.16;98887.63;5047412;28;20021;-77
2021/12/12 11:11:58;;;;;;;13.00;9.20;;;;;;;15.19;51.76;98850.22;5030807;28;20127;-78
2021/12/12 11:14:29;;;;;;;15.05;9.50;;;;;;;15.32;51.77;98872.34;5030135;28;20029;-77
2021/12/12 11:17:11;;;;;;;12.87;7.73;;;;;;;15.40;52.21;98883.50;5031211;28;20530;-78
2021/12/12 11:19:49;;;;;;;;;;;;;;;15.30;52.57;98877.91;5032155;28;20028;-78
2021/12/12 11:22:20;;;;;;;9.57;6.07;;;;;;;15.27;52.26;98867.72;5031223;28;19909;-77
2021/12/12 11:24:56;;;;;;;8.38;5.03;;;;;;;15.46;52.09;98890.56;5031362;28;20029;-76
2021/12/12 11:27:42;;;;;;;7.93;5.30;;;;;;;15.21;52.31;98865.94;5046560;28;20025;-77
2021/12/12 11:30:11;;;;;;;9.18;5.80;;;;;;;15.25;52.46;98883.91;5031279;28;20025;-77
2021/12/12 11:32:37;;;;;;;10.32;6.25;;;;;;;15.34;52.47;98896.88;5031282;28;20506;-77
2021/12/12 11:35:07;;;;;;;10.45;5.53;;;;;;;15.06;52.60;98847.72;5031254;28;20021;-77
2021/12/12 11:38:07;;;;;;;14.55;8.40;;;;;;;15.35;52.91;98890.53;5030872;28;20481;-78
2021/12/12 11:40:40;;;;;;;9.07;5.65;;;;;;;15.33;52.67;98892.59;5027231;28;20514;-77
2021/12/12 11:43:20;;;;;;;9.80;5.72;;;;;;;15.12;52.34;98852.16;5031064;28;20124;-78
2021/12/12 11:45:52;;;;;;;15.90;9.63;;;;;;;15.39;52.36;98879.22;5031076;28;20029;-78
2021/12/12 11:48:55;;;;;;;9.20;6.25;;;;;;;15.05;52.34;98824.03;5030760;28;20449;-77
2021/12/12 11:51:29;;;;;;;12.57;6.82;;;;;;;15.45;51.83;98869.53;5030928;28;20473;-77
2021/12/12 11:54:11;;;;;;;9.70;5.75;;;;;;;15.15;51.83;98822.47;5029547;28;20026;-77
2021/12/12 11:56:51;;;;;;;7.68;4.90;;;;;;;15.38;51.70;98847.53;5030763;28;20037;-77
2021/12/12 11:59:25;;;;;;;6.82;4.10;;;;;;;15.49;51.53;98863.53;5030701;28;20044;-77
2021/12/12 12:02:32;;;;;;;5.53;3.10;;;;;;;15.48;51.53;98855.75;5029474;28;20037;-77
2021/12/12 12:05:06;;;;;;;5.38;2.65;;;;;;;15.49;51.55;98855.53;5020076;28;20034;-77
2021/12/12 12:07:53;;;;;;;5.57;2.30;;;;;;;15.50;51.32;98840.38;5030795;28;20498;-77
2021/12/12 12:10:42;;;;;;;6.55;2.40;;;;;;;15.52;51.50;98840.97;5029514;28;20025;-77
2021/12/12 12:13:33;;;;;;;5.90;1.70;;;;;;;15.49;51.18;98850.22;5030790;28;20033;-77
2021/12/12 12:16:07;;;;;;;8.05;3.90;;;;;;;15.52;51.18;98847.09;5032918;28;20379;-77